createdAt,value
2022-12-05T00:04:43.348Z,15.50
2022-12-05T00:09:42.561Z,14.10
2022-12-05T00:14:40.787Z,13.46
2022-12-05T00:19:41.055Z,12.78
2022-12-05T00:24:39.221Z,14.86
2022-12-05T00:29:40.418Z,16.73
2022-12-05T00:34:38.601Z,15.78
2022-12-05T00:39:36.843Z,15.62
2022-12-05T00:44:37.115Z,15.34
2022-12-05T00:49:35.327Z,16.56
2022-12-05T00:54:34.561Z,15.65
2022-12-05T00:59:33.793Z,16.21
2022-12-05T01:04:33.006Z,15.82
2022-12-05T01:10:14.239Z,15.74
2022-12-05T01:14:31.368Z,15.93
2022-12-05T01:19:31.600Z,15.86
2022-12-05T01:24:30.809Z,16.05
2022-12-05T01:29:29.023Z,16.91
2022-12-05T01:34:28.349Z,16.14
2022-12-05T01:39:28.770Z,16.24
2022-12-05T01:44:28.093Z,16.09
2022-12-05T01:49:26.157Z,16.21
2022-12-05T01:54:25.184Z,16.20
2022-12-05T01:59:24.399Z,16.12
2022-12-05T02:04:23.647Z,15.90
2022-12-05T02:10:04.852Z,15.76
2022-12-05T02:14:21.010Z,18.33
2022-12-05T02:19:22.206Z,23.80
2022-12-05T02:24:20.392Z,24.50
2022-12-05T02:29:19.584Z,24.30
2022-12-05T02:34:17.782Z,24.20
2022-12-05T02:39:17.967Z,23.50
2022-12-05T02:44:18.192Z,22.58
2022-12-05T02:49:17.368Z,21.90
2022-12-05T02:54:16.577Z,21.28
2022-12-05T02:59:19.903Z,21.01
2022-12-05T03:04:13.064Z,20.67
2022-12-05T03:09:14.260Z,20.33
2022-12-05T03:14:14.468Z,20.02
2022-12-05T03:19:12.649Z,20.03
2022-12-05T03:24:11.815Z,19.91
2022-12-05T03:29:10.014Z,19.68
2022-12-05T03:34:09.194Z,19.48
2022-12-05T03:39:10.365Z,19.23
2022-12-05T03:44:08.578Z,19.10
2022-12-05T03:49:07.847Z,18.88
2022-12-05T03:54:08.111Z,18.78
2022-12-05T03:59:06.401Z,18.37
2022-12-05T04:04:04.690Z,17.51
2022-12-05T04:09:06.007Z,17.71
2022-12-05T04:14:03.303Z,17.22
2022-12-05T04:19:03.593Z,17.21
2022-12-05T04:24:00.892Z,17.12
2022-12-05T04:29:02.225Z,17.46
2022-12-05T04:34:00.541Z,17.59
2022-12-05T04:38:59.868Z,16.88
2022-12-05T04:44:00.185Z,16.94
2022-12-05T04:49:00.467Z,17.28
2022-12-05T04:53:57.760Z,17.16
2022-12-05T04:58:57.051Z,16.78
2022-12-05T05:03:56.442Z,16.39
2022-12-05T05:08:55.518Z,16.63
2022-12-05T05:13:54.822Z,16.83
2022-12-05T05:18:54.129Z,16.81
2022-12-05T05:23:53.432Z,16.73
2022-12-05T05:28:53.762Z,16.57
2022-12-05T05:33:51.945Z,16.60
2022-12-05T05:38:52.206Z,16.28
2022-12-05T05:43:51.498Z,16.24
2022-12-05T05:48:50.817Z,16.04
2022-12-05T05:53:49.119Z,16.20
2022-12-05T05:58:49.436Z,16.14
2022-12-05T06:03:48.920Z,16.31
2022-12-05T06:08:46.898Z,16.12
2022-12-05T06:13:45.264Z,16.61
2022-12-05T06:18:46.381Z,17.14
2022-12-05T06:23:45.699Z,16.88
2022-12-05T06:28:44.996Z,17.07
2022-12-05T06:33:44.292Z,17.18
2022-12-05T06:38:43.603Z,17.59
2022-12-05T06:43:40.912Z,17.26
2022-12-05T06:48:41.239Z,16.79
2022-12-05T06:53:40.542Z,16.79
2022-12-05T06:58:39.832Z,16.79
2022-12-05T07:03:39.149Z,16.88
2022-12-05T07:08:39.456Z,17.04
2022-12-05T07:13:38.841Z,16.75
2022-12-05T07:18:36.958Z,16.78
2022-12-05T07:23:37.318Z,16.89
2022-12-05T07:28:35.654Z,16.46
2022-12-05T07:33:34.739Z,16.34
2022-12-05T07:38:35.081Z,16.43
2022-12-05T07:43:33.383Z,16.45
2022-12-05T07:48:33.691Z,15.82
2022-12-05T07:53:32.074Z,16.39
2022-12-05T07:58:31.212Z,16.81
2022-12-05T08:03:30.338Z,16.75
2022-12-05T08:08:30.606Z,19.68
2022-12-05T08:13:29.879Z,20.29
2022-12-05T08:18:30.156Z,22.65
2022-12-05T08:23:27.465Z,24.15
2022-12-05T08:28:27.754Z,25.82
2022-12-05T08:33:27.035Z,25.90
2022-12-05T08:38:26.293Z,26.21
2022-12-05T08:43:25.585Z,26.77
2022-12-05T08:48:29.001Z,27.14
2022-12-05T08:53:23.032Z,27.31
2022-12-05T08:58:22.392Z,25.35
2022-12-05T09:03:21.521Z,24.96
2022-12-05T09:08:20.700Z,26.51
2022-12-05T09:13:20.054Z,26.89
2022-12-05T09:18:20.211Z,27.93
2022-12-05T09:23:18.762Z,26.65
2022-12-05T09:28:18.632Z,25.52
2022-12-05T09:33:16.934Z,28.00
2022-12-05T09:38:16.260Z,27.78
2022-12-05T09:43:15.549Z,29.76
2022-12-05T09:48:14.840Z,30.29
2022-12-05T09:53:15.145Z,30.54
2022-12-05T09:58:13.447Z,30.45
2022-12-05T10:03:13.734Z,29.87
2022-12-05T10:08:12.091Z,28.74
2022-12-05T10:13:12.257Z,26.87
2022-12-05T10:18:10.565Z,26.48
2022-12-05T10:23:18.775Z,25.62
2022-12-05T10:28:09.084Z,24.08
2022-12-05T10:33:09.796Z,23.72
2022-12-05T10:38:07.618Z,22.27
2022-12-05T10:43:07.987Z,21.03
2022-12-05T10:48:08.108Z,20.98
2022-12-05T10:53:07.426Z,20.20
2022-12-05T10:58:04.734Z,20.32
2022-12-05T11:03:05.050Z,20.43
2022-12-05T11:08:04.390Z,19.99
2022-12-05T11:13:01.675Z,19.81
2022-12-05T11:18:03.051Z,19.10
2022-12-05T11:23:01.189Z,18.87
2022-12-05T11:28:01.700Z,18.72
2022-12-05T11:32:59.665Z,18.66
2022-12-05T11:37:58.766Z,18.78
2022-12-05T11:43:05.234Z,18.35
2022-12-05T11:47:58.353Z,18.12
2022-12-05T11:52:56.635Z,17.99
2022-12-05T11:57:57.956Z,18.33
2022-12-05T12:02:55.280Z,18.29
2022-12-05T12:07:56.660Z,18.02
2022-12-05T12:12:54.734Z,18.15
2022-12-05T12:17:53.031Z,18.44
2022-12-05T12:22:52.349Z,18.39
2022-12-05T12:27:52.672Z,18.30
2022-12-05T12:32:50.992Z,17.46
2022-12-05T12:37:51.323Z,17.16
2022-12-05T12:42:50.649Z,17.40
2022-12-05T12:47:48.968Z,17.03
2022-12-05T12:52:48.280Z,16.88
2022-12-05T12:57:49.645Z,16.67
2022-12-05T13:02:47.747Z,16.41
2022-12-05T13:07:46.154Z,16.07
2022-12-05T13:12:46.321Z,16.60
2022-12-05T13:17:44.599Z,16.58
2022-12-05T13:22:43.880Z,17.56
2022-12-05T13:27:43.159Z,17.77
2022-12-05T13:32:42.443Z,17.62
2022-12-05T13:37:41.720Z,17.79
2022-12-05T13:42:42.994Z,17.89
2022-12-05T13:47:40.282Z,18.20
2022-12-05T13:52:40.574Z,17.93
2022-12-05T13:57:40.865Z,18.14
2022-12-05T14:02:38.252Z,18.52
2022-12-05T14:07:37.400Z,18.26
2022-12-05T14:12:36.562Z,17.40
2022-12-05T14:17:36.691Z,17.99
2022-12-05T14:22:34.843Z,17.59
2022-12-05T14:27:35.145Z,17.90
2022-12-05T14:32:33.419Z,17.55
2022-12-05T14:37:34.772Z,17.51
2022-12-05T14:42:33.852Z,17.30
2022-12-05T14:47:31.131Z,17.12
2022-12-05T14:52:30.440Z,17.26
2022-12-05T14:57:30.740Z,17.64
2022-12-05T15:02:30.050Z,18.47
2022-12-05T15:07:29.343Z,18.87
2022-12-05T15:12:29.649Z,19.26
2022-12-05T15:17:27.929Z,18.82
2022-12-05T15:22:27.228Z,19.22
2022-12-05T15:27:26.501Z,18.52
2022-12-05T15:32:25.802Z,18.21
2022-12-05T15:37:26.103Z,18.41
2022-12-05T15:42:29.306Z,18.05
2022-12-05T15:47:23.581Z,17.96
2022-12-05T15:52:23.909Z,17.79
2022-12-05T15:57:23.232Z,17.99
2022-12-05T16:02:21.557Z,18.18
2022-12-05T16:07:19.656Z,17.86
2022-12-05T16:12:19.994Z,17.71
2022-12-05T16:17:18.300Z,17.64
2022-12-05T16:22:17.496Z,17.40
2022-12-05T16:27:17.725Z,17.33
2022-12-05T16:32:16.041Z,17.37
2022-12-05T16:37:16.190Z,17.06
2022-12-05T16:42:15.499Z,16.52
2022-12-05T16:47:15.018Z,17.37
2022-12-05T16:52:14.973Z,18.85
2022-12-05T16:57:15.362Z,20.20
2022-12-05T17:02:11.967Z,20.66
2022-12-05T17:07:11.651Z,20.54
2022-12-05T17:12:10.982Z,20.39
2022-12-05T17:17:09.427Z,20.38
2022-12-05T17:22:09.527Z,20.13
2022-12-05T17:27:07.899Z,19.99
2022-12-05T17:32:07.140Z,19.68
2022-12-05T17:37:07.900Z,19.25
2022-12-05T17:42:06.559Z,18.67
2022-12-05T17:47:08.265Z,18.42
2022-12-05T17:52:22.415Z,18.07
2022-12-05T17:57:04.315Z,18.08
2022-12-05T18:02:03.267Z,17.78
2022-12-05T18:07:01.580Z,17.75
2022-12-05T18:12:02.203Z,17.28
2022-12-05T18:17:00.270Z,17.15
2022-12-05T18:22:00.437Z,16.82
2022-12-05T18:26:58.589Z,16.57
2022-12-05T18:31:59.690Z,16.45
2022-12-05T18:36:57.193Z,17.11
2022-12-05T18:41:56.493Z,18.73
2022-12-05T18:46:55.780Z,19.86
2022-12-05T18:51:56.002Z,20.21
2022-12-05T18:56:54.277Z,20.03
2022-12-05T19:01:53.532Z,20.08
2022-12-05T19:06:52.785Z,19.55
2022-12-05T19:11:52.078Z,19.39
2022-12-05T19:16:56.459Z,21.16
2022-12-05T19:21:51.565Z,21.13
2022-12-05T19:26:50.859Z,21.54
2022-12-05T19:31:50.228Z,22.64
2022-12-05T19:36:49.354Z,25.67
2022-12-05T19:41:47.636Z,27.85
2022-12-05T19:46:47.996Z,28.11
2022-12-05T19:51:48.175Z,28.74
2022-12-05T19:56:45.339Z,29.11
2022-12-05T20:01:44.209Z,29.46
2022-12-05T20:06:43.372Z,29.68
2022-12-05T20:11:43.968Z,29.80
2022-12-05T20:16:41.815Z,29.58
2022-12-05T20:21:40.961Z,30.04
2022-12-05T20:26:42.445Z,30.10
2022-12-05T20:31:40.976Z,30.43
2022-12-05T20:36:40.051Z,30.49
2022-12-05T20:41:40.308Z,30.73
2022-12-05T20:46:38.302Z,30.83
2022-12-05T20:51:38.440Z,31.17
2022-12-05T20:56:38.945Z,31.86
2022-12-05T21:01:36.096Z,32.25
2022-12-05T21:06:34.524Z,31.46
2022-12-05T21:11:33.775Z,31.91
2022-12-05T21:16:33.102Z,32.06
2022-12-05T21:21:31.920Z,32.48
2022-12-05T21:26:32.387Z,32.59
2022-12-05T21:31:30.796Z,31.89
2022-12-05T21:36:30.656Z,31.95
2022-12-05T21:41:29.955Z,32.15
2022-12-05T21:46:30.326Z,32.28
2022-12-05T21:51:26.453Z,32.28
2022-12-05T21:56:26.748Z,32.32
2022-12-05T22:01:26.073Z,32.65
2022-12-05T22:06:25.274Z,32.77
2022-12-05T22:11:25.444Z,32.77
2022-12-05T22:16:29.008Z,32.84
2022-12-05T22:21:22.825Z,32.81
2022-12-05T22:26:22.995Z,32.66
2022-12-05T22:31:21.195Z,32.55
2022-12-05T22:36:21.377Z,32.52
2022-12-05T22:41:19.542Z,32.62
2022-12-05T22:46:19.804Z,32.84
2022-12-05T22:51:19.032Z,32.89
2022-12-05T22:56:18.216Z,33.01
2022-12-05T23:01:19.371Z,33.04
2022-12-05T23:06:16.551Z,32.89
2022-12-05T23:11:14.714Z,32.19
2022-12-05T23:16:15.034Z,31.70
2022-12-05T23:21:12.049Z,32.19
2022-12-05T23:26:12.239Z,32.55
2022-12-05T23:31:11.451Z,32.51
2022-12-05T23:36:11.628Z,32.77
2022-12-05T23:41:10.832Z,32.77
2022-12-05T23:46:08.978Z,32.70
2022-12-05T23:51:10.153Z,32.78
2022-12-05T23:56:08.317Z,32.97
